West Mineola, Texas
Current Conditions -  °F | °C
As of 10:55 PM on Monday 20 Oct 2014 (Local Time) from KJDD Reporting Station
Clear Clear  
Wind Chill: 61°   Ceiling: Unl
Heat Index: 61°   Visibility: 7mi
Dew Point: 59°   Wind: 0mph
Humidity: 94%   Direction: NA
Pressure: 30.07"   Gusts: NA
Location:  32.6629°N, 95.4808°W
Report Text: KJDD 210355Z AUTO 00000KT 7SM CLR 16/15 A3007 RMK AO2
Loading
Personal Weather Stations






























Interactive Weather Map
Tropical Storm Tracking
New forecast layout! Learn more

10-Day Weather Forecast

Advertisements
Track Severe Weather on mobile